Huvudsida
METAR-TAF:

METAR-TAF

Flygplatser :

Kärrdal, Estland

Kärrdals flygplats

latitud: 58-59N, longitud: 022-49E, höjd: 5 m

Aktuellt väderrapport

Denna rapport gjordes för 11 timmar och 35 minuter sedan, klockan 15:50 UTC
Stilla vind
Temperatur -9°C
Fuktighet 100%
Tryck 996 hPa
Sikt: 7000 m
Få moln på en höjd av 900 ft
Spridda moln på en höjd av 2300 ft

METAR: EEKA 181550Z 00000KT 7000 FEW009 SCT023 M09/M09 Q0996

Tid: 05:25 (03:25 UTC)

Väderprognos

Denna rapport gjordes för 13 timmar och 35 minuter sedan, klockan 13:50 UTC
Prognos gäller från 18 kl. 14 UTC till 18 kl. 20 UTC
Vind 2 kt varierande vindriktning
Sikt: 6000 m
Brutna moln på en höjd av 600 ft
Mulet på en höjd av 1200 ft
Temporärt
från 18 kl. 14 UTC till 18 kl. 20 UTC
Sikt: 2000 m
Mulet på en höjd av 300 ft
snö, fuktdis
Sannolikhet 30% :
Temporärt
från 18 kl. 14 UTC till 18 kl. 17 UTC
(lätt) underkylt, duggregn

TAF: EEKA 181350Z 1814/1820 VRB02KT 6000 BKN006 OVC012 TEMPO 1814/1820 2000 SN BR OVC003 PROB30 TEMPO 1814/1817 -FZDZ

Aktuella väderrapporter och prognoser från 4000 flygplatser (METAR- och TAF-rapporter).

De tillgängliga stationerna syns som gula och röda prickar på kartan.

För musen över prickarna för att se namnen på stationerna.

Klicka sedan för att få väderrapporter och prognoser.

För att ändra kartan: Klicka på de gröna knapparna med ett svart kors på för att zooma in; den gröna knappen med ett streck på för att zooma ut; eller på de gröna pilarna för angränsande kartor.


METAR-TAF: